createdAt,value
2022-08-11T00:01:51.980Z,19.36
2022-08-11T00:04:20.823Z,19.36
2022-08-11T00:06:48.869Z,19.34
2022-08-11T00:09:20.428Z,19.32
2022-08-11T00:11:49.006Z,19.30
2022-08-11T00:14:17.915Z,19.27
2022-08-11T00:16:54.937Z,19.26
2022-08-11T00:20:12.930Z,19.22
2022-08-11T00:22:12.824Z,19.21
2022-08-11T00:24:53.625Z,19.17
2022-08-11T00:27:32.288Z,19.16
2022-08-11T00:29:59.898Z,19.14
2022-08-11T00:32:29.801Z,19.11
2022-08-11T00:35:51.272Z,19.07
2022-08-11T00:37:48.548Z,19.06
2022-08-11T00:40:19.416Z,19.03
2022-08-11T00:42:54.149Z,19.01
2022-08-11T00:45:25.117Z,18.98
2022-08-11T00:48:02.325Z,18.97
2022-08-11T00:50:35.962Z,18.93
2022-08-11T00:53:19.053Z,18.89
2022-08-11T00:56:04.573Z,18.87
2022-08-11T00:58:51.262Z,18.84
2022-08-11T01:01:28.096Z,18.81
2022-08-11T01:04:12.324Z,18.78
2022-08-11T01:06:49.441Z,18.76
2022-08-11T01:09:34.809Z,18.74
2022-08-11T01:12:20.225Z,18.73
2022-08-11T01:15:17.739Z,18.71
2022-08-11T01:18:00.145Z,18.68
2022-08-11T01:20:49.586Z,18.66
2022-08-11T01:23:36.689Z,18.64
2022-08-11T01:26:36.236Z,18.62
2022-08-11T01:29:21.418Z,18.58
2022-08-11T01:32:06.592Z,18.57
2022-08-11T01:34:52.866Z,18.53
2022-08-11T01:37:40.040Z,18.51
2022-08-11T01:40:23.250Z,18.48
2022-08-11T01:43:28.703Z,18.47
2022-08-11T01:45:58.383Z,18.45
2022-08-11T01:48:34.960Z,18.43
2022-08-11T01:51:06.185Z,18.40
2022-08-11T01:53:45.231Z,18.38
2022-08-11T01:56:17.972Z,18.36
2022-08-11T01:58:49.586Z,18.35
2022-08-11T02:01:28.833Z,18.34
2022-08-11T02:03:59.526Z,18.31
2022-08-11T02:06:49.149Z,18.29
2022-08-11T02:09:21.600Z,18.28
2022-08-11T02:11:51.590Z,18.28
2022-08-11T02:14:25.334Z,18.27
2022-08-11T02:16:59.988Z,18.24
2022-08-11T02:19:53.151Z,18.22
2022-08-11T02:22:43.849Z,18.21
2022-08-11T02:25:19.392Z,18.20
2022-08-11T02:27:54.910Z,18.19
2022-08-11T02:30:25.473Z,18.16
2022-08-11T02:33:13.871Z,18.15
2022-08-11T02:35:47.217Z,18.15
2022-08-11T02:38:19.127Z,18.13
2022-08-11T02:40:50.388Z,18.13
2022-08-11T02:43:30.541Z,18.10
2022-08-11T02:46:07.553Z,18.09
2022-08-11T02:49:10.049Z,18.09
2022-08-11T02:51:42.522Z,18.09
2022-08-11T02:54:13.611Z,18.08
2022-08-11T02:56:46.141Z,18.07
2022-08-11T02:59:36.797Z,18.05
2022-08-11T03:02:07.897Z,18.06
2022-08-11T03:04:39.764Z,18.05
2022-08-11T03:07:28.049Z,18.05
2022-08-11T03:10:04.320Z,18.04
2022-08-11T03:12:55.076Z,18.02
2022-08-11T03:15:42.835Z,18.01
2022-08-11T03:18:17.049Z,17.98
2022-08-11T03:20:47.020Z,17.98
2022-08-11T03:23:19.787Z,17.98
2022-08-11T03:25:52.104Z,17.98
2022-08-11T03:28:28.387Z,17.99
2022-08-11T03:31:02.626Z,17.98
2022-08-11T03:33:49.515Z,17.97
2022-08-11T03:36:23.880Z,17.97
2022-08-11T03:39:02.230Z,17.97
2022-08-11T03:42:01.665Z,17.96
2022-08-11T03:44:51.149Z,17.94
2022-08-11T03:47:24.047Z,17.95
2022-08-11T03:50:14.508Z,17.93
2022-08-11T03:52:59.489Z,17.95
2022-08-11T03:55:32.467Z,17.96
2022-08-11T03:58:21.242Z,17.97
2022-08-11T04:01:04.001Z,17.98
2022-08-11T04:03:49.883Z,17.97
2022-08-11T04:06:38.405Z,17.95
2022-08-11T04:09:24.858Z,17.95
2022-08-11T04:12:35.832Z,17.95
2022-08-11T04:15:41.969Z,17.96
2022-08-11T04:18:23.584Z,17.97
2022-08-11T04:21:00.862Z,17.96
2022-08-11T04:24:35.833Z,17.96
2022-08-11T04:26:53.415Z,17.94
2022-08-11T04:29:35.925Z,17.93
2022-08-11T04:32:12.162Z,17.94
2022-08-11T04:34:50.492Z,17.95
2022-08-11T04:37:35.817Z,17.96
2022-08-11T04:40:27.838Z,17.94
2022-08-11T04:43:22.554Z,17.94
2022-08-11T04:46:10.458Z,17.94
2022-08-11T04:49:10.148Z,17.95
2022-08-11T04:52:14.082Z,17.96
2022-08-11T04:55:12.282Z,17.97
2022-08-11T04:58:05.030Z,17.97
2022-08-11T05:00:54.736Z,17.98
2022-08-11T05:03:41.375Z,18.01
2022-08-11T05:06:27.163Z,18.03
2022-08-11T05:09:09.513Z,18.05
2022-08-11T05:11:46.227Z,18.06
2022-08-11T05:14:45.601Z,18.08
2022-08-11T05:17:33.844Z,18.11
2022-08-11T05:20:19.148Z,18.16
2022-08-11T05:23:15.227Z,18.19
2022-08-11T05:26:44.461Z,18.23
2022-08-11T05:29:19.831Z,18.27
2022-08-11T05:32:08.843Z,18.32
2022-08-11T05:34:53.793Z,18.37
2022-08-11T05:37:27.288Z,18.41
2022-08-11T05:40:16.158Z,18.46
2022-08-11T05:43:07.376Z,18.51
2022-08-11T05:46:02.898Z,18.56
2022-08-11T05:48:51.449Z,18.62
2022-08-11T05:51:37.111Z,18.67
2022-08-11T05:54:28.607Z,18.72
2022-08-11T05:56:58.654Z,18.78
2022-08-11T05:59:28.588Z,18.83
2022-08-11T06:02:01.247Z,18.88
2022-08-11T06:04:29.303Z,18.94
2022-08-11T06:06:58.917Z,18.99
2022-08-11T06:09:28.603Z,19.05
2022-08-11T06:11:57.712Z,19.10
2022-08-11T06:14:26.010Z,19.14
2022-08-11T06:16:59.096Z,19.20
2022-08-11T06:19:33.556Z,19.28
2022-08-11T06:22:02.498Z,19.36
2022-08-11T06:24:32.368Z,19.43
2022-08-11T06:27:15.549Z,19.50
2022-08-11T06:29:54.881Z,19.57
2022-08-11T06:32:27.267Z,19.71
2022-08-11T06:35:11.292Z,19.90
2022-08-11T06:37:46.732Z,20.29
2022-08-11T06:40:24.513Z,20.75
2022-08-11T06:42:55.213Z,21.28
2022-08-11T06:45:31.742Z,21.82
2022-08-11T06:48:02.917Z,22.40
2022-08-11T06:50:48.633Z,23.02
2022-08-11T06:53:18.509Z,23.75
2022-08-11T06:56:04.419Z,24.39
2022-08-11T06:58:51.100Z,25.04
2022-08-11T07:01:23.869Z,25.72
2022-08-11T07:03:58.338Z,26.29
2022-08-11T07:06:41.471Z,26.79
2022-08-11T07:09:51.501Z,27.40
2022-08-11T07:12:51.295Z,28.06
2022-08-11T07:16:11.262Z,28.63
2022-08-11T07:18:42.778Z,29.21
2022-08-11T07:22:01.510Z,29.53
2022-08-11T07:24:59.704Z,29.94
2022-08-11T07:27:44.678Z,30.46
2022-08-11T07:30:12.491Z,30.80
2022-08-11T07:32:52.386Z,31.01
2022-08-11T07:35:22.953Z,31.30
2022-08-11T07:38:01.836Z,31.54
2022-08-11T07:40:30.440Z,31.77
2022-08-11T07:42:59.869Z,32.15
2022-08-11T07:45:45.331Z,32.37
2022-08-11T07:48:31.184Z,32.62
2022-08-11T07:51:17.630Z,33.03
2022-08-11T07:54:03.107Z,33.40
2022-08-11T07:56:54.422Z,33.69
2022-08-11T08:00:02.723Z,34.00
2022-08-11T08:02:46.706Z,34.29
2022-08-11T08:05:33.512Z,34.52
2022-08-11T08:08:18.611Z,34.69
2022-08-11T08:11:05.040Z,34.83
2022-08-11T08:13:50.816Z,35.06
2022-08-11T08:16:36.116Z,35.31
2022-08-11T08:19:03.666Z,35.61
2022-08-11T08:21:32.192Z,35.76
2022-08-11T08:23:59.789Z,35.98
2022-08-11T08:26:51.305Z,36.22
2022-08-11T08:29:38.180Z,36.52
2022-08-11T08:32:05.995Z,36.74
2022-08-11T08:34:33.938Z,36.89
2022-08-11T08:37:01.828Z,37.09
2022-08-11T08:39:33.801Z,37.18
2022-08-11T08:42:05.462Z,37.35
2022-08-11T08:44:38.790Z,37.50
2022-08-11T08:47:10.736Z,37.57
2022-08-11T08:49:41.690Z,37.58
2022-08-11T08:52:30.754Z,37.67
2022-08-11T08:55:03.352Z,37.77
2022-08-11T08:57:34.042Z,37.76
2022-08-11T09:00:08.701Z,37.80
2022-08-11T09:02:37.221Z,37.80
2022-08-11T09:05:05.324Z,37.83
2022-08-11T09:07:38.763Z,37.80
2022-08-11T09:10:08.726Z,37.81
2022-08-11T09:12:39.705Z,38.05
2022-08-11T09:15:10.319Z,37.96
2022-08-11T09:17:40.438Z,38.02
2022-08-11T09:20:09.404Z,38.23
2022-08-11T09:23:24.265Z,38.37
2022-08-11T09:26:02.899Z,38.42
2022-08-11T09:28:31.833Z,38.62
2022-08-11T09:31:01.291Z,38.66
2022-08-11T09:33:29.689Z,38.69
2022-08-11T09:35:58.251Z,38.72
2022-08-11T09:38:49.416Z,38.73
2022-08-11T09:41:18.089Z,38.92
2022-08-11T09:44:12.535Z,39.04
2022-08-11T09:46:40.262Z,39.11
2022-08-11T09:49:07.876Z,39.11
2022-08-11T09:51:35.564Z,39.14
2022-08-11T09:54:06.468Z,39.12
2022-08-11T09:56:52.102Z,39.24
2022-08-11T09:59:22.599Z,39.41
2022-08-11T10:01:51.289Z,39.36
2022-08-11T10:04:20.457Z,39.43
2022-08-11T10:07:01.781Z,39.47
2022-08-11T10:09:36.217Z,39.37
2022-08-11T10:12:04.852Z,39.48
2022-08-11T10:14:52.901Z,39.52
2022-08-11T10:17:21.744Z,39.60
2022-08-11T10:20:03.946Z,39.39
2022-08-11T10:23:02.556Z,39.12
2022-08-11T10:25:47.451Z,39.25
2022-08-11T10:28:28.866Z,39.45
2022-08-11T10:31:22.803Z,39.60
2022-08-11T10:34:04.360Z,39.72
2022-08-11T10:36:32.814Z,39.64
2022-08-11T10:39:01.558Z,39.67
2022-08-11T10:42:08.352Z,39.66
2022-08-11T10:44:38.855Z,39.55
2022-08-11T10:47:26.249Z,39.71
2022-08-11T10:50:18.269Z,39.80
2022-08-11T10:53:04.775Z,39.80
2022-08-11T10:55:50.634Z,39.73
2022-08-11T10:58:36.580Z,39.69
2022-08-11T11:01:05.386Z,39.48
2022-08-11T11:03:35.491Z,39.43
2022-08-11T11:06:27.870Z,39.44
2022-08-11T11:09:03.711Z,39.61
2022-08-11T11:11:52.322Z,39.55
2022-08-11T11:14:46.323Z,39.50
2022-08-11T11:17:34.783Z,39.11
2022-08-11T11:20:04.726Z,38.95
2022-08-11T11:22:41.583Z,38.99
2022-08-11T11:25:16.628Z,39.11
2022-08-11T11:27:52.265Z,38.93
2022-08-11T11:30:20.207Z,38.65
2022-08-11T11:32:56.566Z,38.56
2022-08-11T11:35:32.064Z,38.52
2022-08-11T11:38:05.185Z,38.53
2022-08-11T11:40:33.788Z,38.47
2022-08-11T11:43:02.283Z,38.27
2022-08-11T11:45:29.887Z,38.22
2022-08-11T11:48:01.861Z,38.36
2022-08-11T11:50:32.996Z,38.45
2022-08-11T11:53:01.596Z,38.45
2022-08-11T11:55:29.491Z,38.40
2022-08-11T11:58:18.744Z,38.38
2022-08-11T12:01:04.861Z,38.38
2022-08-11T12:03:33.362Z,38.32
2022-08-11T12:06:03.535Z,38.38
2022-08-11T12:08:31.513Z,38.44
2022-08-11T12:11:14.445Z,38.43
2022-08-11T12:13:42.459Z,38.54
2022-08-11T12:16:34.371Z,38.57
2022-08-11T12:19:00.065Z,38.50
2022-08-11T12:21:29.442Z,38.47
2022-08-11T12:24:15.772Z,38.51
2022-08-11T12:27:16.583Z,38.46
2022-08-11T12:29:50.098Z,38.37
2022-08-11T12:32:22.322Z,38.16
2022-08-11T12:34:50.219Z,38.09
2022-08-11T12:37:23.575Z,38.04
2022-08-11T12:40:16.552Z,38.04
2022-08-11T12:43:21.026Z,37.95
2022-08-11T12:45:53.494Z,37.81
2022-08-11T12:48:58.937Z,37.78
2022-08-11T12:52:01.432Z,37.74
2022-08-11T12:54:42.048Z,37.64
2022-08-11T12:57:36.239Z,37.49
2022-08-11T13:00:23.430Z,37.37
2022-08-11T13:03:09.044Z,37.43
2022-08-11T13:05:44.362Z,37.23
2022-08-11T13:08:13.877Z,37.07
2022-08-11T13:11:00.707Z,36.82
2022-08-11T13:13:55.649Z,36.64
2022-08-11T13:16:16.934Z,36.53
2022-08-11T13:18:45.258Z,36.37
2022-08-11T13:21:20.211Z,36.23
2022-08-11T13:23:59.413Z,36.10
2022-08-11T13:26:43.423Z,36.05
2022-08-11T13:29:18.970Z,35.83
2022-08-11T13:31:47.074Z,35.72
2022-08-11T13:34:15.931Z,35.60
2022-08-11T13:36:44.209Z,35.54
2022-08-11T13:39:12.127Z,35.46
2022-08-11T13:41:44.092Z,35.38
2022-08-11T13:44:16.312Z,35.26
2022-08-11T13:46:47.211Z,35.13
2022-08-11T13:49:17.005Z,35.06
2022-08-11T13:51:45.180Z,34.94
2022-08-11T13:54:17.583Z,34.87
2022-08-11T13:56:47.916Z,34.88
2022-08-11T13:59:16.304Z,34.76
2022-08-11T14:02:20.564Z,34.63
2022-08-11T14:04:37.377Z,34.62
2022-08-11T14:07:07.661Z,34.67
2022-08-11T14:09:37.787Z,34.73
2022-08-11T14:12:26.245Z,34.77
2022-08-11T14:14:58.503Z,34.85
2022-08-11T14:17:47.768Z,34.78
2022-08-11T14:20:38.380Z,34.74
2022-08-11T14:23:02.048Z,34.54
2022-08-11T14:26:00.647Z,34.30
2022-08-11T14:28:33.870Z,34.04
2022-08-11T14:31:06.200Z,33.93
2022-08-11T14:34:00.789Z,33.89
2022-08-11T14:36:22.378Z,33.87
2022-08-11T14:38:50.723Z,33.86
2022-08-11T14:41:36.541Z,33.71
2022-08-11T14:44:23.999Z,33.46
2022-08-11T14:47:24.585Z,33.33
2022-08-11T14:50:08.232Z,33.26
2022-08-11T14:52:44.325Z,33.22
2022-08-11T14:55:30.372Z,33.20
2022-08-11T14:57:58.129Z,33.14
2022-08-11T15:00:27.522Z,33.22
2022-08-11T15:03:10.961Z,33.31
2022-08-11T15:05:40.744Z,33.24
2022-08-11T15:08:09.161Z,33.15
2022-08-11T15:10:37.228Z,33.10
2022-08-11T15:13:05.065Z,33.07
2022-08-11T15:15:51.738Z,33.06
2022-08-11T15:18:20.707Z,32.96
2022-08-11T15:21:06.175Z,32.80
2022-08-11T15:23:51.449Z,32.71
2022-08-11T15:26:40.790Z,32.66
2022-08-11T15:29:40.832Z,32.57
2022-08-11T15:32:29.132Z,32.57
2022-08-11T15:35:16.185Z,32.56
2022-08-11T15:37:44.981Z,32.48
2022-08-11T15:40:34.679Z,32.34
2022-08-11T15:43:29.024Z,32.15
2022-08-11T15:46:02.348Z,31.87
2022-08-11T15:48:38.407Z,31.71
2022-08-11T15:51:09.217Z,31.63
2022-08-11T15:53:40.962Z,31.63
2022-08-11T15:56:09.458Z,31.56
2022-08-11T15:59:10.490Z,31.42
2022-08-11T16:02:04.328Z,31.32
2022-08-11T16:04:34.020Z,31.11
2022-08-11T16:07:02.812Z,30.93
2022-08-11T16:09:47.033Z,30.76
2022-08-11T16:12:17.042Z,30.67
2022-08-11T16:15:04.093Z,30.53
2022-08-11T16:17:33.524Z,30.41
2022-08-11T16:20:03.594Z,30.32
2022-08-11T16:22:37.486Z,30.23
2022-08-11T16:27:01.515Z,30.13
2022-08-11T16:27:56.193Z,30.01
2022-08-11T16:30:24.541Z,30.02
2022-08-11T16:32:53.072Z,30.02
2022-08-11T16:35:47.297Z,30.02
2022-08-11T16:38:33.249Z,29.92
2022-08-11T16:41:01.746Z,29.85
2022-08-11T16:43:47.825Z,29.78
2022-08-11T16:46:33.714Z,29.68
2022-08-11T16:49:01.511Z,29.58
2022-08-11T16:51:30.410Z,29.43
2022-08-11T16:54:04.281Z,29.34
2022-08-11T16:56:36.002Z,29.28
2022-08-11T16:59:15.515Z,29.24
2022-08-11T17:01:45.777Z,29.18
2022-08-11T17:04:34.514Z,29.06
2022-08-11T17:07:51.339Z,28.96
2022-08-11T17:10:51.777Z,28.96
2022-08-11T17:13:23.468Z,28.89
2022-08-11T17:16:12.516Z,28.81
2022-08-11T17:18:51.148Z,28.72
2022-08-11T17:21:20.784Z,28.67
2022-08-11T17:23:50.619Z,28.60
2022-08-11T17:26:20.680Z,28.55
2022-08-11T17:28:51.353Z,28.53
2022-08-11T17:31:38.424Z,28.48
2022-08-11T17:34:25.009Z,28.43
2022-08-11T17:36:54.267Z,28.38
2022-08-11T17:39:25.195Z,28.34
2022-08-11T17:42:10.599Z,28.27
2022-08-11T17:44:57.656Z,28.16
2022-08-11T17:47:42.824Z,28.09
2022-08-11T17:50:17.694Z,28.01
2022-08-11T17:53:03.943Z,27.90
2022-08-11T17:55:53.211Z,27.84
2022-08-11T17:58:39.237Z,27.74
2022-08-11T18:01:09.574Z,27.62
2022-08-11T18:03:39.245Z,27.49
2022-08-11T18:06:12.361Z,27.38
2022-08-11T18:09:01.884Z,27.27
2022-08-11T18:12:11.575Z,27.18
2022-08-11T18:14:55.229Z,27.12
2022-08-11T18:17:40.223Z,27.03
2022-08-11T18:20:25.790Z,26.96
2022-08-11T18:23:13.064Z,26.89
2022-08-11T18:26:00.252Z,26.84
2022-08-11T18:28:51.616Z,26.76
2022-08-11T18:31:39.203Z,26.68
2022-08-11T18:34:25.819Z,26.58
2022-08-11T18:37:20.567Z,26.46
2022-08-11T18:40:09.267Z,26.39
2022-08-11T18:42:55.827Z,26.32
2022-08-11T18:45:46.335Z,26.25
2022-08-11T18:48:34.156Z,26.19
2022-08-11T18:51:30.841Z,26.11
2022-08-11T18:54:23.298Z,26.04
2022-08-11T18:57:08.206Z,25.99
2022-08-11T18:59:54.870Z,25.95
2022-08-11T19:02:49.350Z,25.87
2022-08-11T19:06:35.889Z,25.85
2022-08-11T19:08:42.466Z,25.78
2022-08-11T19:11:28.826Z,25.71
2022-08-11T19:14:14.091Z,25.67
2022-08-11T19:17:00.199Z,25.60
2022-08-11T19:19:47.707Z,25.51
2022-08-11T19:22:35.072Z,25.45
2022-08-11T19:25:25.284Z,25.41
2022-08-11T19:28:11.716Z,25.35
2022-08-11T19:30:57.935Z,25.26
2022-08-11T19:34:00.252Z,25.22
2022-08-11T19:36:50.172Z,25.17
2022-08-11T19:39:36.368Z,25.11
2022-08-11T19:42:22.240Z,25.04
2022-08-11T19:45:08.023Z,24.96
2022-08-11T19:48:08.179Z,24.88
2022-08-11T19:51:01.418Z,24.82
2022-08-11T19:53:51.214Z,24.76
2022-08-11T19:56:36.244Z,24.71
2022-08-11T19:59:21.916Z,24.66
2022-08-11T20:02:14.339Z,24.60
2022-08-11T20:05:00.139Z,24.58
2022-08-11T20:07:45.997Z,24.56
2022-08-11T20:10:34.711Z,24.51
2022-08-11T20:13:21.567Z,24.48
2022-08-11T20:16:07.201Z,24.41
2022-08-11T20:18:52.759Z,24.36
2022-08-11T20:21:39.015Z,24.32
2022-08-11T20:24:24.741Z,24.26
2022-08-11T20:27:18.988Z,24.20
2022-08-11T20:30:11.110Z,24.15
2022-08-11T20:32:56.951Z,24.11
2022-08-11T20:35:42.563Z,24.04
2022-08-11T20:38:27.885Z,24.01
2022-08-11T20:41:16.181Z,23.96
2022-08-11T20:44:05.632Z,23.92
2022-08-11T20:46:55.106Z,23.88
2022-08-11T20:49:50.418Z,23.85
2022-08-11T20:52:40.221Z,23.79
2022-08-11T20:55:51.550Z,23.77
2022-08-11T20:58:47.974Z,23.73
2022-08-11T21:01:41.076Z,23.66
2022-08-11T21:04:26.653Z,23.61
2022-08-11T21:07:12.618Z,23.59
2022-08-11T21:10:12.033Z,23.55
2022-08-11T21:13:25.234Z,23.50
2022-08-11T21:16:10.180Z,23.43
2022-08-11T21:19:10.987Z,23.35
2022-08-11T21:21:56.652Z,23.31
2022-08-11T21:24:46.990Z,23.26
2022-08-11T21:27:35.006Z,23.21
2022-08-11T21:30:21.085Z,23.16
2022-08-11T21:33:06.088Z,23.12
2022-08-11T21:35:52.593Z,23.09
2022-08-11T21:38:37.960Z,23.03
2022-08-11T21:41:23.970Z,23.00
2022-08-11T21:44:09.606Z,22.95
2022-08-11T21:46:55.628Z,22.92
2022-08-11T21:49:41.986Z,22.89
2022-08-11T21:52:28.362Z,22.85
2022-08-11T21:55:13.534Z,22.83
2022-08-11T21:57:59.280Z,22.79
2022-08-11T22:00:45.188Z,22.78
2022-08-11T22:03:30.917Z,22.74
2022-08-11T22:06:21.660Z,22.71
2022-08-11T22:09:08.267Z,22.69
2022-08-11T22:12:29.082Z,22.66
2022-08-11T22:14:59.801Z,22.64
2022-08-11T22:17:44.874Z,22.63
2022-08-11T22:20:30.561Z,22.60
2022-08-11T22:23:17.040Z,22.57
2022-08-11T22:26:11.601Z,22.55
2022-08-11T22:28:57.001Z,22.53
2022-08-11T22:31:42.244Z,22.49
2022-08-11T22:34:27.392Z,22.46
2022-08-11T22:37:26.747Z,22.43
2022-08-11T22:40:13.037Z,22.42
2022-08-11T22:42:59.264Z,22.38
2022-08-11T22:45:44.306Z,22.36
2022-08-11T22:48:29.987Z,22.32
2022-08-11T22:51:16.363Z,22.32
2022-08-11T22:54:01.817Z,22.28
2022-08-11T22:56:46.956Z,22.26
2022-08-11T22:59:33.990Z,22.23
2022-08-11T23:02:20.227Z,22.16
2022-08-11T23:05:06.173Z,22.13
2022-08-11T23:07:52.265Z,22.11
2022-08-11T23:10:37.626Z,22.05
2022-08-11T23:13:22.912Z,22.01
2022-08-11T23:16:09.751Z,21.98
2022-08-11T23:18:56.373Z,21.96
2022-08-11T23:21:41.759Z,21.94
2022-08-11T23:24:27.127Z,21.91
2022-08-11T23:27:13.044Z,21.87
2022-08-11T23:29:58.651Z,21.84
2022-08-11T23:32:47.899Z,21.83
2022-08-11T23:35:40.134Z,21.81
2022-08-11T23:38:26.175Z,21.80
2022-08-11T23:41:11.694Z,21.78
2022-08-11T23:43:57.042Z,21.76
2022-08-11T23:46:43.888Z,21.74
2022-08-11T23:49:30.299Z,21.70
2022-08-11T23:52:16.325Z,21.65
2022-08-11T23:55:03.237Z,21.63
2022-08-11T23:57:49.452Z,21.60
